Time;durP1;ratioP1;P1;durP2;ratioP2;P2;SDS_P1;SDS_P2;PMS_P1;PMS_P2;Temp;Humidity;BMP_temperature;BMP_pressure;BME280_temperature;BME280_humidity;BME280_pressure;Samples;Min_cycle;Max_cycle;Signal;HPM_P1;HPM_P2
2023/04/04 00:00:25;;;;;;;6.47;2.73;;;;;;;;;;5029788;28;20225;-67
2023/04/04 00:02:51;;;;;;;7.77;3.33;;;;;;;;;;5024381;28;20244;-67
2023/04/04 00:05:16;;;;;;;6.73;3.00;;;;;;;;;;5023879;28;20632;-67
2023/04/04 00:07:45;;;;;;;4.27;2.70;;;;;;;;;;5022532;28;20197;-67
2023/04/04 00:10:10;;;;;;;6.63;2.90;;;;;;;;;;5027433;28;20198;-68
2023/04/04 00:12:36;;;;;;;5.70;3.07;;;;;;;;;;5026612;28;20190;-68
2023/04/04 00:15:01;;;;;;;6.77;3.10;;;;;;;;;;5027908;28;20198;-68
2023/04/04 00:17:27;;;;;;;10.23;3.23;;;;;;;;;;5018872;28;20277;-68
2023/04/04 00:19:52;;;;;;;7.47;3.00;;;;;;;;;;5018995;28;20237;-68
2023/04/04 00:22:17;;;;;;;6.63;3.33;;;;;;;;;;5018576;28;20190;-68
2023/04/04 00:24:43;;;;;;;6.93;3.13;;;;;;;;;;5024443;28;20190;-67
2023/04/04 00:27:08;;;;;;;9.43;3.10;;;;;;;;;;5026690;28;20226;-67
2023/04/04 00:29:33;;;;;;;8.33;3.03;;;;;;;;;;5020605;28;20806;-68
2023/04/04 00:31:59;;;;;;;5.50;3.00;;;;;;;;;;5019186;28;20205;-68
2023/04/04 00:34:25;;;;;;;6.47;3.07;;;;;;;;;;5025569;28;20186;-68
2023/04/04 00:36:51;;;;;;;6.67;3.40;;;;;;;;;;5026747;28;20826;-67
2023/04/04 00:39:17;;;;;;;6.80;3.17;;;;;;;;;;5016847;28;20599;-67
2023/04/04 00:41:42;;;;;;;9.43;3.50;;;;;;;;;;5028923;28;20532;-68
2023/04/04 00:44:08;;;;;;;6.50;3.53;;;;;;;;;;5029892;28;20646;-68
2023/04/04 00:46:33;;;;;;;9.93;3.30;;;;;;;;;;5028091;28;20194;-67
2023/04/04 00:48:59;;;;;;;9.20;3.93;;;;;;;;;;5022150;28;20202;-67
2023/04/04 00:51:24;;;;;;;7.17;3.23;;;;;;;;;;5023377;28;20595;-68
2023/04/04 00:53:50;;;;;;;7.47;3.93;;;;;;;;;;5028784;28;20321;-67
2023/04/04 00:56:16;;;;;;;9.63;3.40;;;;;;;;;;5028314;28;20216;-67
2023/04/04 00:58:42;;;;;;;7.87;3.53;;;;;;;;;;5029925;28;20725;-67
2023/04/04 01:01:10;;;;;;;10.33;3.60;;;;;;;;;;5028635;28;20218;-67
2023/04/04 01:03:36;;;;;;;9.07;3.50;;;;;;;;;;5029112;28;20194;-67
2023/04/04 01:06:02;;;;;;;8.90;3.90;;;;;;;;;;5028513;28;20265;-67
2023/04/04 01:08:28;;;;;;;5.87;3.20;;;;;;;;;;5024304;28;20232;-67
2023/04/04 01:10:54;;;;;;;8.53;4.37;;;;;;;;;;5022656;28;20187;-67
2023/04/04 01:13:20;;;;;;;12.00;4.00;;;;;;;;;;5023240;28;20198;-68
2023/04/04 01:15:46;;;;;;;10.57;3.97;;;;;;;;;;5014516;28;20238;-67
2023/04/04 01:18:16;;;;;;;5.07;3.23;;;;;;;;;;5020015;28;20298;-68
2023/04/04 01:20:51;;;;;;;7.20;3.70;;;;;;;;;;5028259;28;20276;-67
2023/04/04 01:23:17;;;;;;;7.60;3.93;;;;;;;;;;5027634;28;20202;-68
2023/04/04 01:25:45;;;;;;;11.93;4.40;;;;;;;;;;5023307;28;20520;-67
2023/04/04 01:28:10;;;;;;;10.10;4.33;;;;;;;;;;5029496;28;20194;-67
2023/04/04 01:30:37;;;;;;;9.27;3.40;;;;;;;;;;5026563;28;20644;-67
2023/04/04 01:33:19;;;;;;;11.63;3.83;;;;;;;;;;5026154;28;20283;-67
2023/04/04 01:35:53;;;;;;;9.80;3.93;;;;;;;;;;5024685;28;20201;-68
2023/04/04 01:38:30;;;;;;;6.87;3.67;;;;;;;;;;5028387;28;20224;-67
2023/04/04 01:41:01;;;;;;;6.70;3.40;;;;;;;;;;5029757;28;20250;-68
2023/04/04 01:43:29;;;;;;;9.07;3.63;;;;;;;;;;5019207;28;20198;-67
2023/04/04 01:45:55;;;;;;;6.83;3.40;;;;;;;;;;5029750;28;20272;-68
2023/04/04 01:48:21;;;;;;;8.43;4.07;;;;;;;;;;5022269;28;20217;-68
2023/04/04 01:50:46;;;;;;;6.97;3.33;;;;;;;;;;5029511;28;20606;-68
2023/04/04 01:53:11;;;;;;;11.17;4.00;;;;;;;;;;5024200;28;20225;-67
2023/04/04 01:55:37;;;;;;;9.47;3.70;;;;;;;;;;5026102;28;20197;-68
2023/04/04 01:58:02;;;;;;;7.70;3.70;;;;;;;;;;5028559;28;20210;-67
2023/04/04 02:00:28;;;;;;;9.43;3.90;;;;;;;;;;5023880;28;20238;-67
2023/04/04 02:02:53;;;;;;;12.80;4.03;;;;;;;;;;5021753;28;20190;-67
2023/04/04 02:05:18;;;;;;;9.77;3.30;;;;;;;;;;5026251;28;20242;-67
2023/04/04 02:07:49;;;;;;;8.77;3.97;;;;;;;;;;5023300;28;20175;-68
2023/04/04 02:10:15;;;;;;;5.27;2.77;;;;;;;;;;5019257;28;20589;-68
2023/04/04 02:12:40;;;;;;;10.30;3.60;;;;;;;;;;5020311;28;20245;-68
2023/04/04 02:15:06;;;;;;;9.17;3.40;;;;;;;;;;5025492;28;20710;-68
2023/04/04 02:17:31;;;;;;;9.67;3.23;;;;;;;;;;5025497;28;20213;-68
2023/04/04 02:19:57;;;;;;;7.53;3.30;;;;;;;;;;5030251;28;20189;-68
2023/04/04 02:22:22;;;;;;;6.50;3.40;;;;;;;;;;5017458;28;20641;-67
2023/04/04 02:24:47;;;;;;;6.40;3.63;;;;;;;;;;5028579;28;20194;-67
2023/04/04 02:27:13;;;;;;;8.17;3.40;;;;;;;;;;5028248;28;20194;-67
2023/04/04 02:29:38;;;;;;;11.43;3.63;;;;;;;;;;5018405;28;20309;-67
2023/04/04 02:32:03;;;;;;;10.60;4.13;;;;;;;;;;5028220;28;20256;-67
2023/04/04 02:34:29;;;;;;;5.07;3.20;;;;;;;;;;5038854;28;20710;-67
2023/04/04 02:36:54;;;;;;;5.97;3.47;;;;;;;;;;5028547;28;20186;-68
2023/04/04 02:39:20;;;;;;;7.60;3.60;;;;;;;;;;5015271;28;20234;-68
2023/04/04 02:41:46;;;;;;;6.57;3.23;;;;;;;;;;5022471;28;20175;-68
2023/04/04 02:44:11;;;;;;;8.37;3.77;;;;;;;;;;5013862;28;20207;-68
2023/04/04 02:46:37;;;;;;;8.27;3.30;;;;;;;;;;5028498;28;20665;-68
2023/04/04 02:49:03;;;;;;;7.40;3.40;;;;;;;;;;5023367;28;20186;-68
2023/04/04 02:51:28;;;;;;;6.37;3.30;;;;;;;;;;5026904;28;20190;-67
2023/04/04 02:53:53;;;;;;;8.23;3.43;;;;;;;;;;5027668;28;20532;-67
2023/04/04 02:56:19;;;;;;;7.67;3.10;;;;;;;;;;5026494;28;20233;-67
2023/04/04 02:58:44;;;;;;;10.70;3.83;;;;;;;;;;5015877;28;20262;-67
2023/04/04 03:01:10;;;;;;;8.30;4.00;;;;;;;;;;5028658;28;20214;-67
2023/04/04 03:03:35;;;;;;;7.20;3.50;;;;;;;;;;5023067;28;20661;-67
2023/04/04 03:06:01;;;;;;;11.57;3.70;;;;;;;;;;5020620;28;20194;-67
2023/04/04 03:08:27;;;;;;;6.53;3.37;;;;;;;;;;5012104;28;20674;-67
2023/04/04 03:10:52;;;;;;;10.73;3.70;;;;;;;;;;5011404;28;20195;-67
2023/04/04 03:13:18;;;;;;;6.73;3.00;;;;;;;;;;5011262;28;20204;-67
2023/04/04 03:15:43;;;;;;;7.37;3.37;;;;;;;;;;5028958;28;20287;-67
2023/04/04 03:18:09;;;;;;;9.37;3.77;;;;;;;;;;5029748;28;20709;-68
2023/04/04 03:20:34;;;;;;;6.43;3.30;;;;;;;;;;5025094;28;20190;-67
2023/04/04 03:23:00;;;;;;;8.27;3.83;;;;;;;;;;5018752;28;20197;-68
2023/04/04 03:25:25;;;;;;;6.30;2.90;;;;;;;;;;5023189;28;20190;-68
2023/04/04 03:27:51;;;;;;;8.37;3.20;;;;;;;;;;5017263;28;20541;-68
2023/04/04 03:30:16;;;;;;;6.13;3.10;;;;;;;;;;5037902;28;20348;-68
2023/04/04 03:32:42;;;;;;;10.83;3.10;;;;;;;;;;5024226;28;20526;-68
2023/04/04 03:35:07;;;;;;;8.00;3.07;;;;;;;;;;5015355;28;20267;-68
2023/04/04 03:37:34;;;;;;;5.87;2.90;;;;;;;;;;5025080;28;20182;-68
2023/04/04 03:39:59;;;;;;;7.87;3.10;;;;;;;;;;5023318;28;20727;-68
2023/04/04 03:42:28;;;;;;;8.97;3.57;;;;;;;;;;5024483;28;20194;-68
2023/04/04 03:44:53;;;;;;;5.47;3.00;;;;;;;;;;5033053;28;20724;-68
2023/04/04 03:47:19;;;;;;;7.03;3.00;;;;;;;;;;5025211;28;20202;-68
2023/04/04 03:49:45;;;;;;;10.53;3.23;;;;;;;;;;5023689;28;20216;-68
2023/04/04 03:52:10;;;;;;;14.23;3.40;;;;;;;;;;5027556;28;20194;-68
2023/04/04 03:54:36;;;;;;;6.70;3.00;;;;;;;;;;5010042;28;20276;-67
2023/04/04 03:57:03;;;;;;;6.73;3.53;;;;;;;;;;5020690;28;20961;-67
2023/04/04 03:59:28;;;;;;;7.57;2.93;;;;;;;;;;5027055;28;20210;-68
2023/04/04 04:01:53;;;;;;;7.77;3.33;;;;;;;;;;5026232;28;20233;-68
2023/04/04 04:04:19;;;;;;;5.33;3.20;;;;;;;;;;5026064;28;20268;-68
2023/04/04 04:06:44;;;;;;;8.60;3.50;;;;;;;;;;5025918;28;20190;-67
2023/04/04 04:09:11;;;;;;;7.20;3.57;;;;;;;;;;5007858;28;20219;-68
2023/04/04 04:11:36;;;;;;;6.10;3.23;;;;;;;;;;5024915;28;20194;-68
2023/04/04 04:14:02;;;;;;;7.87;3.33;;;;;;;;;;5026768;28;20747;-68
2023/04/04 04:16:28;;;;;;;8.47;3.03;;;;;;;;;;5025662;28;20193;-68
2023/04/04 04:18:53;;;;;;;8.87;3.27;;;;;;;;;;5021205;28;20203;-68
2023/04/04 04:21:19;;;;;;;5.03;3.00;;;;;;;;;;5015289;28;20717;-68
2023/04/04 04:23:44;;;;;;;6.83;3.97;;;;;;;;;;5025009;28;20190;-68
2023/04/04 04:26:10;;;;;;;9.03;3.90;;;;;;;;;;5019772;28;20194;-68
2023/04/04 04:28:35;;;;;;;8.87;3.83;;;;;;;;;;5017413;28;20204;-68
2023/04/04 04:31:08;;;;;;;9.13;3.70;;;;;;;;;;4988790;28;1055087;-68
2023/04/04 04:33:34;;;;;;;9.17;3.77;;;;;;;;;;5008359;28;20283;-68
2023/04/04 04:36:04;;;;;;;9.80;4.03;;;;;;;;;;5011615;28;20196;-68
2023/04/04 04:38:30;;;;;;;7.30;3.43;;;;;;;;;;5008285;28;20276;-69
2023/04/04 04:40:56;;;;;;;5.53;3.53;;;;;;;;;;5017010;28;20195;-68
2023/04/04 04:43:22;;;;;;;10.33;3.70;;;;;;;;;;5009056;28;20270;-68
2023/04/04 04:45:47;;;;;;;9.50;3.50;;;;;;;;;;5014834;28;20191;-68
2023/04/04 04:48:13;;;;;;;8.77;3.33;;;;;;;;;;5021472;28;20194;-69
2023/04/04 04:50:38;;;;;;;7.57;3.63;;;;;;;;;;5015625;28;20183;-69
2023/04/04 04:53:03;;;;;;;9.97;4.30;;;;;;;;;;5016218;28;20198;-69
2023/04/04 04:55:29;;;;;;;6.10;3.70;;;;;;;;;;5009227;28;20183;-69
2023/04/04 04:57:55;;;;;;;10.20;3.77;;;;;;;;;;5010615;28;20222;-68
2023/04/04 05:00:21;;;;;;;6.37;3.70;;;;;;;;;;5006597;28;20289;-68
2023/04/04 05:02:46;;;;;;;7.73;3.73;;;;;;;;;;5028951;28;20488;-68
2023/04/04 05:05:11;;;;;;;6.20;3.83;;;;;;;;;;5012452;28;20274;-68
2023/04/04 05:07:37;;;;;;;9.43;3.60;;;;;;;;;;5016972;28;20183;-68
2023/04/04 05:10:02;;;;;;;6.20;3.63;;;;;;;;;;5008206;28;20273;-68
2023/04/04 05:12:28;;;;;;;9.73;3.70;;;;;;;;;;5015503;28;20183;-68
2023/04/04 05:14:56;;;;;;;8.97;4.13;;;;;;;;;;5013265;28;20537;-69
2023/04/04 05:17:22;;;;;;;14.30;3.77;;;;;;;;;;5016918;28;20305;-68
2023/04/04 05:19:47;;;;;;;8.43;4.17;;;;;;;;;;5013056;28;20299;-68
2023/04/04 05:22:12;;;;;;;9.40;4.53;;;;;;;;;;5022062;28;20182;-68
2023/04/04 05:24:38;;;;;;;9.93;4.23;;;;;;;;;;5023549;28;20197;-69
2023/04/04 05:27:03;;;;;;;7.30;3.67;;;;;;;;;;5021253;28;20216;-69
2023/04/04 05:29:29;;;;;;;6.80;3.40;;;;;;;;;;5028738;28;20222;-68
2023/04/04 05:31:54;;;;;;;9.97;4.37;;;;;;;;;;5023998;28;20286;-68
2023/04/04 05:34:20;;;;;;;9.73;4.20;;;;;;;;;;5018683;28;20284;-68
2023/04/04 05:36:46;;;;;;;5.93;3.37;;;;;;;;;;5016661;28;20198;-68
2023/04/04 05:39:11;;;;;;;8.97;4.37;;;;;;;;;;5014086;28;20705;-68
2023/04/04 05:41:37;;;;;;;9.23;3.80;;;;;;;;;;5019690;28;20186;-68
2023/04/04 05:44:02;;;;;;;9.03;4.13;;;;;;;;;;5023266;28;20190;-69
2023/04/04 05:46:28;;;;;;;10.80;4.27;;;;;;;;;;5022757;28;20193;-68
2023/04/04 05:48:54;;;;;;;9.17;3.73;;;;;;;;;;5025643;28;20661;-67
2023/04/04 05:51:19;;;;;;;7.83;4.00;;;;;;;;;;5016068;28;20218;-68
2023/04/04 05:53:46;;;;;;;8.27;3.57;;;;;;;;;;5018147;28;20661;-68
2023/04/04 05:56:12;;;;;;;7.27;3.93;;;;;;;;;;5012031;28;20268;-68
2023/04/04 05:58:37;;;;;;;7.60;3.97;;;;;;;;;;5015668;28;20219;-69
2023/04/04 06:01:09;;;;;;;9.50;3.83;;;;;;;;;;5029443;28;20707;-68
2023/04/04 06:03:34;;;;;;;9.90;3.70;;;;;;;;;;5029344;28;20190;-69
2023/04/04 06:06:03;;;;;;;8.33;3.90;;;;;;;;;;5019445;28;20239;-69
2023/04/04 06:08:28;;;;;;;8.17;3.87;;;;;;;;;;5022457;28;20175;-69
2023/04/04 06:10:54;;;;;;;6.97;3.90;;;;;;;;;;5014630;28;20186;-69
2023/04/04 06:13:20;;;;;;;8.30;3.80;;;;;;;;;;5017023;28;20568;-68
2023/04/04 06:15:45;;;;;;;10.30;3.90;;;;;;;;;;5029056;28;20182;-70
2023/04/04 06:18:11;;;;;;;9.23;3.67;;;;;;;;;;5020233;28;20202;-68
2023/04/04 06:20:36;;;;;;;5.33;2.90;;;;;;;;;;5008745;28;20790;-68
2023/04/04 06:23:03;;;;;;;6.60;3.43;;;;;;;;;;5021084;28;20194;-69
2023/04/04 06:25:29;;;;;;;8.87;3.27;;;;;;;;;;5023315;28;20187;-68
2023/04/04 06:27:55;;;;;;;6.63;3.03;;;;;;;;;;5024003;28;20233;-69
2023/04/04 06:30:20;;;;;;;8.43;3.40;;;;;;;;;;5016803;28;20229;-68
2023/04/04 06:32:45;;;;;;;5.50;2.90;;;;;;;;;;5020650;28;20222;-68
2023/04/04 06:35:11;;;;;;;4.77;2.63;;;;;;;;;;5019998;28;20240;-68
2023/04/04 06:37:36;;;;;;;5.93;2.60;;;;;;;;;;5027746;28;20197;-68
2023/04/04 06:40:03;;;;;;;6.63;3.20;;;;;;;;;;5022385;28;20186;-69
2023/04/04 06:42:28;;;;;;;6.07;2.77;;;;;;;;;;5025809;28;20186;-68
2023/04/04 06:44:53;;;;;;;5.40;2.63;;;;;;;;;;5012353;28;20191;-68
2023/04/04 06:47:20;;;;;;;8.47;2.80;;;;;;;;;;5015133;28;20531;-68
2023/04/04 06:49:45;;;;;;;7.47;2.70;;;;;;;;;;5011217;28;20211;-68
2023/04/04 06:52:11;;;;;;;5.97;2.40;;;;;;;;;;5017624;28;20595;-68
2023/04/04 06:54:36;;;;;;;6.80;2.77;;;;;;;;;;5024858;28;20197;-68
2023/04/04 06:57:02;;;;;;;4.40;2.30;;;;;;;;;;5016522;28;20650;-68
2023/04/04 06:59:27;;;;;;;7.77;2.40;;;;;;;;;;5027385;28;20228;-68
2023/04/04 07:01:52;;;;;;;6.20;2.30;;;;;;;;;;5022204;28;20220;-69
2023/04/04 07:04:19;;;;;;;7.23;2.40;;;;;;;;;;5027869;28;20637;-69
2023/04/04 07:06:44;;;;;;;5.30;2.60;;;;;;;;;;5029527;28;20597;-68
2023/04/04 07:09:10;;;;;;;3.23;2.00;;;;;;;;;;5022115;28;20214;-68
2023/04/04 07:11:35;;;;;;;3.43;1.87;;;;;;;;;;5024841;28;20694;-68
2023/04/04 07:14:01;;;;;;;7.13;2.53;;;;;;;;;;5031412;28;20198;-69
2023/04/04 07:16:27;;;;;;;7.37;2.33;;;;;;;;;;5039589;28;20644;-68
2023/04/04 07:18:52;;;;;;;4.60;2.17;;;;;;;;;;5027058;28;20292;-68
2023/04/04 07:21:19;;;;;;;4.07;1.97;;;;;;;;;;5028689;28;20515;-68
2023/04/04 07:23:44;;;;;;;7.10;2.33;;;;;;;;;;5026629;28;20193;-68
2023/04/04 07:26:10;;;;;;;5.07;2.20;;;;;;;;;;5035592;28;20185;-68
2023/04/04 07:28:36;;;;;;;5.00;1.80;;;;;;;;;;5022823;28;20218;-68
2023/04/04 07:31:02;;;;;;;4.87;1.87;;;;;;;;;;5024174;28;20227;-68
2023/04/04 07:33:28;;;;;;;6.00;2.20;;;;;;;;;;5027428;28;20281;-68
2023/04/04 07:35:53;;;;;;;5.93;2.10;;;;;;;;;;5036521;28;20723;-68
2023/04/04 07:38:19;;;;;;;6.00;2.20;;;;;;;;;;5034168;28;20230;-68
2023/04/04 07:40:45;;;;;;;4.03;1.80;;;;;;;;;;5033562;28;20182;-68
2023/04/04 07:43:10;;;;;;;4.47;1.90;;;;;;;;;;5024164;28;20281;-67
2023/04/04 07:45:36;;;;;;;8.03;2.10;;;;;;;;;;5024708;28;20195;-67
2023/04/04 07:48:01;;;;;;;6.37;1.90;;;;;;;;;;5021977;28;20199;-68
2023/04/04 07:50:27;;;;;;;4.80;1.80;;;;;;;;;;5008515;28;20567;-67
2023/04/04 07:52:54;;;;;;;5.77;1.90;;;;;;;;;;5019579;28;20193;-67
2023/04/04 07:55:20;;;;;;;3.73;2.13;;;;;;;;;;5014817;28;20689;-67
2023/04/04 07:57:46;;;;;;;8.50;2.00;;;;;;;;;;5028403;28;20196;-68
2023/04/04 08:00:12;;;;;;;6.47;2.00;;;;;;;;;;5013581;28;20206;-68
2023/04/04 08:02:38;;;;;;;4.73;2.10;;;;;;;;;;5028318;28;20274;-68
2023/04/04 08:05:04;;;;;;;6.03;2.00;;;;;;;;;;5027953;28;20735;-68
2023/04/04 08:07:29;;;;;;;5.30;1.80;;;;;;;;;;5027059;28;20190;-68
2023/04/04 08:09:55;;;;;;;8.97;1.73;;;;;;;;;;5022470;28;20243;-68
2023/04/04 08:12:20;;;;;;;5.87;1.90;;;;;;;;;;5027235;28;20201;-68
2023/04/04 08:14:46;;;;;;;4.30;1.63;;;;;;;;;;5026681;28;20229;-68
2023/04/04 08:17:11;;;;;;;3.73;1.83;;;;;;;;;;5023559;28;20194;-68
2023/04/04 08:19:37;;;;;;;3.17;1.70;;;;;;;;;;5014123;28;20198;-68
2023/04/04 08:22:02;;;;;;;5.83;1.70;;;;;;;;;;5014646;28;20268;-68
2023/04/04 08:24:28;;;;;;;5.57;1.70;;;;;;;;;;5019970;28;20179;-68
2023/04/04 08:26:53;;;;;;;4.83;1.70;;;;;;;;;;5026898;28;20198;-69
2023/04/04 08:29:18;;;;;;;5.80;1.70;;;;;;;;;;5021445;28;20372;-68
2023/04/04 08:31:44;;;;;;;7.60;1.70;;;;;;;;;;5019495;28;20671;-68
2023/04/04 08:34:09;;;;;;;4.23;1.63;;;;;;;;;;5016035;28;20187;-68
2023/04/04 08:36:35;;;;;;;4.50;1.57;;;;;;;;;;5021960;28;20190;-68
2023/04/04 08:39:01;;;;;;;4.73;1.57;;;;;;;;;;5023122;28;20258;-69
2023/04/04 08:41:27;;;;;;;5.43;1.50;;;;;;;;;;5020608;28;20558;-68
2023/04/04 08:43:55;;;;;;;4.27;1.57;;;;;;;;;;5022628;28;20201;-68
2023/04/04 08:46:24;;;;;;;4.23;1.57;;;;;;;;;;5013518;28;20298;-68
2023/04/04 08:48:51;;;;;;;2.07;1.20;;;;;;;;;;5019124;28;20209;-68
2023/04/04 08:51:18;;;;;;;5.53;1.80;;;;;;;;;;5019347;28;20602;-68
2023/04/04 08:53:44;;;;;;;5.17;1.70;;;;;;;;;;5013744;28;20202;-68
2023/04/04 08:56:10;;;;;;;5.37;1.77;;;;;;;;;;5021549;28;20186;-68
2023/04/04 08:58:37;;;;;;;5.97;2.00;;;;;;;;;;5017523;28;20207;-68
2023/04/04 09:01:04;;;;;;;4.97;1.30;;;;;;;;;;5007597;28;20233;-68
2023/04/04 09:03:33;;;;;;;4.83;1.60;;;;;;;;;;5023490;28;20201;-68
2023/04/04 09:05:59;;;;;;;5.07;1.90;;;;;;;;;;5024065;28;20183;-68
2023/04/04 09:08:25;;;;;;;4.73;1.87;;;;;;;;;;5020549;28;20610;-68
2023/04/04 09:10:51;;;;;;;7.30;1.70;;;;;;;;;;5036074;28;20178;-69
2023/04/04 09:13:18;;;;;;;5.13;2.17;;;;;;;;;;5036388;28;20255;-67
2023/04/04 09:15:49;;;;;;;5.63;2.30;;;;;;;;;;5027976;28;20583;-67
2023/04/04 09:18:16;;;;;;;5.77;2.03;;;;;;;;;;5026739;28;20289;-67
2023/04/04 09:20:44;;;;;;;4.90;2.03;;;;;;;;;;5029808;28;20182;-67
2023/04/04 09:23:11;;;;;;;5.07;2.40;;;;;;;;;;5039562;28;20194;-67
2023/04/04 09:25:43;;;;;;;4.93;2.33;;;;;;;;;;5030769;28;20237;-68
2023/04/04 09:28:08;;;;;;;5.37;1.93;;;;;;;;;;5030876;28;20197;-67
2023/04/04 09:30:37;;;;;;;4.17;2.00;;;;;;;;;;5029434;28;20229;-68
2023/04/04 09:33:07;;;;;;;3.07;1.80;;;;;;;;;;5017045;28;20194;-67
2023/04/04 09:35:37;;;;;;;3.80;2.03;;;;;;;;;;5015502;28;20217;-68
2023/04/04 09:38:04;;;;;;;5.33;1.93;;;;;;;;;;5012677;28;20730;-68
2023/04/04 09:40:30;;;;;;;5.23;2.10;;;;;;;;;;5012992;28;20195;-68
2023/04/04 09:42:59;;;;;;;5.95;2.10;;;;;;;;;;5013931;28;20273;-68
2023/04/04 09:45:25;;;;;;;4.35;1.95;;;;;;;;;;5015062;28;20218;-68
2023/04/04 09:47:51;;;;;;;4.88;2.20;;;;;;;;;;5027969;28;20221;-69
2023/04/04 09:50:24;;;;;;;5.85;1.98;;;;;;;;;;5020427;28;20190;-68
2023/04/04 09:52:51;;;;;;;6.20;1.67;;;;;;;;;;5019700;28;20187;-69
2023/04/04 09:55:17;;;;;;;5.68;2.08;;;;;;;;;;5020933;28;20198;-68
2023/04/04 09:57:45;;;;;;;6.43;1.85;;;;;;;;;;5019429;28;20259;-68
2023/04/04 10:00:11;;;;;;;9.75;2.72;;;;;;;;;;5027629;28;20218;-68
2023/04/04 10:02:40;;;;;;;6.55;2.22;;;;;;;;;;5017690;28;20603;-68
2023/04/04 10:05:09;;;;;;;6.88;1.92;;;;;;;;;;5014592;28;20676;-69
2023/04/04 10:07:37;;;;;;;5.90;1.95;;;;;;;;;;5010231;28;20721;-69
2023/04/04 10:10:07;;;;;;;4.97;1.90;;;;;;;;;;5018886;28;20229;-68
2023/04/04 10:12:35;;;;;;;4.43;2.08;;;;;;;;;;5033890;28;20186;-68
2023/04/04 10:15:01;;;;;;;4.43;1.70;;;;;;;;;;5029020;28;20209;-69
2023/04/04 10:17:36;;;;;;;6.13;2.00;;;;;;;;;;5028894;28;20197;-68
2023/04/04 10:20:05;;;;;;;4.38;2.00;;;;;;;;;;5030231;28;20566;-68
2023/04/04 10:22:31;;;;;;;4.60;1.95;;;;;;;;;;5028856;28;20186;-68
2023/04/04 10:24:57;;;;;;;7.03;1.73;;;;;;;;;;5020267;28;20190;-68
2023/04/04 10:27:24;;;;;;;4.60;2.15;;;;;;;;;;5030104;28;20213;-67
2023/04/04 10:29:50;;;;;;;5.88;2.00;;;;;;;;;;5019943;28;20305;-69
2023/04/04 10:32:28;;;;;;;8.68;2.25;;;;;;;;;;5010114;28;20195;-69
2023/04/04 10:35:03;;;;;;;5.80;2.00;;;;;;;;;;5026992;28;20633;-68
2023/04/04 10:37:33;;;;;;;4.28;2.42;;;;;;;;;;5012720;28;20585;-67
2023/04/04 10:40:14;;;;;;;3.97;2.17;;;;;;;;;;5025794;28;20372;-68
2023/04/04 10:42:45;;;;;;;5.87;1.93;;;;;;;;;;5015219;28;20290;-67
2023/04/04 10:45:14;;;;;;;4.75;1.88;;;;;;;;;;5029428;28;20190;-67
2023/04/04 10:47:40;;;;;;;6.88;2.05;;;;;;;;;;5015064;28;20206;-67
2023/04/04 10:50:09;;;;;;;5.50;2.22;;;;;;;;;;5026426;28;20232;-67
2023/04/04 10:52:36;;;;;;;7.32;2.30;;;;;;;;;;5027167;28;20186;-69
2023/04/04 10:55:05;;;;;;;5.75;2.15;;;;;;;;;;5019409;28;20445;-69
2023/04/04 10:57:41;;;;;;;7.32;1.88;;;;;;;;;;5026464;28;20206;-67
2023/04/04 11:00:09;;;;;;;5.53;1.95;;;;;;;;;;5011142;28;20234;-68
2023/04/04 11:02:54;;;;;;;3.67;1.60;;;;;;;;;;5029022;28;20652;-67
2023/04/04 11:05:40;;;;;;;4.55;1.83;;;;;;;;;;5010393;28;20182;-67
2023/04/04 11:08:07;;;;;;;4.15;2.28;;;;;;;;;;5027493;28;20193;-67
2023/04/04 11:10:36;;;;;;;3.55;1.90;;;;;;;;;;5011563;28;20191;-67
2023/04/04 11:13:10;;;;;;;4.93;1.90;;;;;;;;;;5009002;28;20521;-67
2023/04/04 11:16:02;;;;;;;3.55;1.70;;;;;;;;;;5026745;28;20648;-68
2023/04/04 11:18:30;;;;;;;8.00;2.10;;;;;;;;;;5023380;28;20244;-68
2023/04/04 11:20:56;;;;;;;6.00;2.15;;;;;;;;;;5026837;28;20273;-68
2023/04/04 11:23:24;;;;;;;4.45;1.73;;;;;;;;;;5019352;28;20285;-67
2023/04/04 11:25:54;;;;;;;5.95;2.08;;;;;;;;;;5016836;28;20273;-69
2023/04/04 11:28:35;;;;;;;7.32;2.03;;;;;;;;;;5020339;28;20187;-68
2023/04/04 11:31:19;;;;;;;4.05;2.00;;;;;;;;;;5028312;28;20751;-68
2023/04/04 11:33:59;;;;;;;4.82;1.85;;;;;;;;;;5020915;28;20289;-68
2023/04/04 11:36:49;;;;;;;4.78;1.83;;;;;;;;;;5012170;28;20194;-68
2023/04/04 11:39:28;;;;;;;4.15;1.88;;;;;;;;;;5019853;28;20268;-67
2023/04/04 11:42:10;;;;;;;4.65;1.80;;;;;;;;;;5015528;28;20182;-67
2023/04/04 11:44:40;;;;;;;5.63;2.20;;;;;;;;;;5013561;28;20237;-68
2023/04/04 11:47:05;;;;;;;4.85;1.92;;;;;;;;;;5013950;28;20221;-68
2023/04/04 11:49:36;;;;;;;4.75;1.92;;;;;;;;;;4323252;28;10001323;-67
2023/04/04 11:52:32;;;;;;;3.25;1.50;;;;;;;;;;5018916;28;20598;-68
2023/04/04 11:54:58;;;;;;;4.40;1.63;;;;;;;;;;5019617;28;20202;-68
2023/04/04 11:57:23;;;;;;;4.72;1.83;;;;;;;;;;5021282;28;20564;-69
2023/04/04 11:59:50;;;;;;;4.70;2.05;;;;;;;;;;5022312;28;20764;-68
2023/04/04 12:02:22;;;;;;;5.68;1.90;;;;;;;;;;5022837;28;20200;-68
2023/04/04 12:04:50;;;;;;;6.18;1.83;;;;;;;;;;5022863;28;20777;-68
2023/04/04 12:07:16;;;;;;;4.40;1.75;;;;;;;;;;5021859;28;20451;-67
2023/04/04 12:09:41;;;;;;;5.60;1.88;;;;;;;;;;5016309;28;20191;-68
2023/04/04 12:12:11;;;;;;;5.63;2.00;;;;;;;;;;5019129;28;20324;-68
2023/04/04 12:14:38;;;;;;;6.10;1.70;;;;;;;;;;5018896;28;20289;-68
2023/04/04 12:17:04;;;;;;;3.42;1.55;;;;;;;;;;5022288;28;20204;-68
2023/04/04 12:19:30;;;;;;;4.22;1.60;;;;;;;;;;5024574;28;20661;-68
2023/04/04 12:21:56;;;;;;;3.67;1.85;;;;;;;;;;5019825;28;20278;-68
2023/04/04 12:24:22;;;;;;;4.68;1.73;;;;;;;;;;5022998;28;20193;-68
2023/04/04 12:26:51;;;;;;;5.13;1.67;;;;;;;;;;5019634;28;20633;-68
2023/04/04 12:29:19;;;;;;;5.20;2.13;;;;;;;;;;5020962;28;20218;-68
2023/04/04 12:31:45;;;;;;;3.90;1.58;;;;;;;;;;5022046;28;20189;-68
2023/04/04 12:34:20;;;;;;;5.20;1.70;;;;;;;;;;5017984;28;20565;-68
2023/04/04 12:36:53;;;;;;;3.88;1.65;;;;;;;;;;5010584;28;20572;-67
2023/04/04 12:39:20;;;;;;;3.05;1.50;;;;;;;;;;5018051;28;20210;-69
2023/04/04 12:41:52;;;;;;;5.15;1.83;;;;;;;;;;5016005;28;20193;-68
2023/04/04 12:44:30;;;;;;;5.75;2.13;;;;;;;;;;5017038;28;20275;-68
2023/04/04 12:47:02;;;;;;;5.40;2.05;;;;;;;;;;5028486;28;20198;-68
2023/04/04 12:49:29;;;;;;;5.63;1.40;;;;;;;;;;5023272;28;20205;-68
2023/04/04 12:51:55;;;;;;;4.88;1.70;;;;;;;;;;5021324;28;20193;-68
2023/04/04 12:54:28;;;;;;;2.95;1.48;;;;;;;;;;5022119;28;20196;-68
2023/04/04 12:56:56;;;;;;;2.47;1.42;;;;;;;;;;5012819;28;20222;-68
2023/04/04 12:59:24;;;;;;;3.90;1.80;;;;;;;;;;5016748;28;20237;-68
2023/04/04 13:01:49;;;;;;;4.97;1.60;;;;;;;;;;5015578;28;20604;-68
2023/04/04 13:04:16;;;;;;;6.30;1.77;;;;;;;;;;5033034;28;20288;-69
2023/04/04 13:06:46;;;;;;;4.38;1.85;;;;;;;;;;5015567;28;20658;-67
2023/04/04 13:09:17;;;;;;;2.70;1.42;;;;;;;;;;5017040;28;20186;-67
2023/04/04 13:12:15;;;;;;;5.13;1.65;;;;;;;;;;5022276;28;20206;-67
2023/04/04 13:15:00;;;;;;;3.97;1.50;;;;;;;;;;5012698;28;20205;-68
2023/04/04 13:17:44;;;;;;;5.25;2.13;;;;;;;;;;5023534;28;20192;-67
2023/04/04 13:20:11;;;;;;;7.05;2.05;;;;;;;;;;5025715;28;20787;-68
2023/04/04 13:22:37;;;;;;;3.60;1.67;;;;;;;;;;5023972;28;20844;-67
2023/04/04 13:25:04;;;;;;;4.25;1.92;;;;;;;;;;5020069;28;20194;-67
2023/04/04 13:27:30;;;;;;;5.28;1.75;;;;;;;;;;5022826;28;20221;-67
2023/04/04 13:29:55;;;;;;;5.57;1.85;;;;;;;;;;5024673;28;20724;-68
2023/04/04 13:32:21;;;;;;;3.75;1.30;;;;;;;;;;5023141;28;20658;-68
2023/04/04 13:34:46;;;;;;;7.10;2.58;;;;;;;;;;5017619;28;20247;-66
2023/04/04 13:37:11;;;;;;;3.85;1.80;;;;;;;;;;5025205;28;20193;-68
2023/04/04 13:39:37;;;;;;;4.90;1.85;;;;;;;;;;5020060;28;20222;-69
2023/04/04 13:42:02;;;;;;;4.88;1.70;;;;;;;;;;5024893;28;20268;-69
2023/04/04 13:44:28;;;;;;;4.28;2.17;;;;;;;;;;5018958;28;20649;-69
2023/04/04 13:46:53;;;;;;;4.72;1.90;;;;;;;;;;5019378;28;20272;-69
2023/04/04 13:49:18;;;;;;;4.53;1.98;;;;;;;;;;5019511;28;20274;-70
2023/04/04 13:51:44;;;;;;;3.85;1.92;;;;;;;;;;5014464;28;20279;-69
2023/04/04 13:54:10;;;;;;;5.63;1.75;;;;;;;;;;5016201;28;20197;-69
2023/04/04 13:56:35;;;;;;;2.08;1.80;;;;;;;;;;5031422;28;20190;-69
2023/04/04 13:59:01;;;;;;;3.42;1.60;;;;;;;;;;5028520;28;20217;-68
2023/04/04 14:01:27;;;;;;;3.42;1.70;;;;;;;;;;5021605;28;20213;-69
2023/04/04 14:03:53;;;;;;;3.05;1.63;;;;;;;;;;5011806;28;20187;-69
2023/04/04 14:06:18;;;;;;;3.80;1.98;;;;;;;;;;5011621;28;20194;-70
2023/04/04 14:08:45;;;;;;;6.75;1.77;;;;;;;;;;5015117;28;20195;-69
2023/04/04 14:11:11;;;;;;;4.28;2.25;;;;;;;;;;5011463;28;20214;-69
2023/04/04 14:13:36;;;;;;;2.97;1.80;;;;;;;;;;5020156;28;20317;-68
2023/04/04 14:16:02;;;;;;;4.00;2.22;;;;;;;;;;5019352;28;20372;-68
2023/04/04 14:18:27;;;;;;;4.72;1.80;;;;;;;;;;5012234;28;20517;-67
2023/04/04 14:20:52;;;;;;;5.35;2.58;;;;;;;;;;5017139;28;20200;-69
2023/04/04 14:23:18;;;;;;;3.03;1.90;;;;;;;;;;5020322;28;21764;-69
2023/04/04 14:25:43;;;;;;;5.97;2.10;;;;;;;;;;5008187;28;20194;-67
2023/04/04 14:28:08;;;;;;;4.43;1.92;;;;;;;;;;5011195;28;20194;-68
2023/04/04 14:30:34;;;;;;;3.90;1.92;;;;;;;;;;5021539;28;20234;-68
2023/04/04 14:32:59;;;;;;;2.92;1.90;;;;;;;;;;5015100;28;20278;-68
2023/04/04 14:35:25;;;;;;;6.35;2.10;;;;;;;;;;5013635;28;20194;-68
2023/04/04 14:37:50;;;;;;;4.50;2.13;;;;;;;;;;5018051;28;20192;-68
2023/04/04 14:40:16;;;;;;;2.38;1.50;;;;;;;;;;5011356;28;20703;-68
2023/04/04 14:42:41;;;;;;;3.92;2.08;;;;;;;;;;5012373;28;20198;-68